sensor_id;sensor_type;location;lat;lon;timestamp;temperature;humidity
9662;DHT22;24982;52.344;12.990;2023-05-31T00:01:27;16.00;99.90
9662;DHT22;24982;52.344;12.990;2023-05-31T00:04:29;15.90;99.90
9662;DHT22;24982;52.344;12.990;2023-05-31T00:07:31;15.90;99.90
9662;DHT22;24982;52.344;12.990;2023-05-31T00:10:33;15.80;99.90
9662;DHT22;24982;52.344;12.990;2023-05-31T00:13:35;15.80;99.90
9662;DHT22;24982;52.344;12.990;2023-05-31T00:16:40;15.70;99.90
9662;DHT22;24982;52.344;12.990;2023-05-31T00:19:43;15.70;99.90
9662;DHT22;24982;52.344;12.990;2023-05-31T00:22:45;15.70;99.90
9662;DHT22;24982;52.344;12.990;2023-05-31T00:25:47;15.60;99.90
9662;DHT22;24982;52.344;12.990;2023-05-31T00:28:49;15.60;99.90
9662;DHT22;24982;52.344;12.990;2023-05-31T00:31:52;15.60;99.90
9662;DHT22;24982;52.344;12.990;2023-05-31T00:34:54;15.50;99.90
9662;DHT22;24982;52.344;12.990;2023-05-31T00:37:56;15.60;99.90
9662;DHT22;24982;52.344;12.990;2023-05-31T00:40:58;15.50;99.90
9662;DHT22;24982;52.344;12.990;2023-05-31T00:44:00;15.50;99.90
9662;DHT22;24982;52.344;12.990;2023-05-31T00:47:06;15.40;99.90
9662;DHT22;24982;52.344;12.990;2023-05-31T00:50:08;15.40;99.90
9662;DHT22;24982;52.344;12.990;2023-05-31T00:53:11;15.40;99.90
9662;DHT22;24982;52.344;12.990;2023-05-31T00:59:16;15.30;99.90
9662;DHT22;24982;52.344;12.990;2023-05-31T01:02:19;15.30;99.90
9662;DHT22;24982;52.344;12.990;2023-05-31T01:05:21;15.30;99.90
9662;DHT22;24982;52.344;12.990;2023-05-31T01:08:23;15.20;99.90
9662;DHT22;24982;52.344;12.990;2023-05-31T01:11:31;15.20;99.90
9662;DHT22;24982;52.344;12.990;2023-05-31T01:14:46;15.20;99.90
9662;DHT22;24982;52.344;12.990;2023-05-31T01:18:01;15.10;99.90
9662;DHT22;24982;52.344;12.990;2023-05-31T01:21:09;14.90;99.90
9662;DHT22;24982;52.344;12.990;2023-05-31T01:24:24;14.90;99.90
9662;DHT22;24982;52.344;12.990;2023-05-31T01:27:31;15.00;99.90
9662;DHT22;24982;52.344;12.990;2023-05-31T01:30:37;14.90;99.90
9662;DHT22;24982;52.344;12.990;2023-05-31T01:33:39;14.60;99.90
9662;DHT22;24982;52.344;12.990;2023-05-31T01:36:41;14.90;99.90
9662;DHT22;24982;52.344;12.990;2023-05-31T01:39:45;14.90;99.90
9662;DHT22;24982;52.344;12.990;2023-05-31T01:42:50;14.90;99.90
9662;DHT22;24982;52.344;12.990;2023-05-31T01:45:53;14.90;99.90
9662;DHT22;24982;52.344;12.990;2023-05-31T01:48:56;14.90;99.90
9662;DHT22;24982;52.344;12.990;2023-05-31T01:51:59;14.90;99.90
9662;DHT22;24982;52.344;12.990;2023-05-31T01:55:02;14.90;99.90
9662;DHT22;24982;52.344;12.990;2023-05-31T01:58:06;14.90;99.90
9662;DHT22;24982;52.344;12.990;2023-05-31T02:01:11;14.90;99.90
9662;DHT22;24982;52.344;12.990;2023-05-31T02:04:14;14.80;99.90
9662;DHT22;24982;52.344;12.990;2023-05-31T02:07:18;14.80;99.90
9662;DHT22;24982;52.344;12.990;2023-05-31T02:10:22;14.70;99.90
9662;DHT22;24982;52.344;12.990;2023-05-31T02:13:27;14.70;99.90
9662;DHT22;24982;52.344;12.990;2023-05-31T02:16:29;14.60;99.90
9662;DHT22;24982;52.344;12.990;2023-05-31T02:19:31;14.60;99.90
9662;DHT22;24982;52.344;12.990;2023-05-31T02:22:33;14.60;99.90
9662;DHT22;24982;52.344;12.990;2023-05-31T02:25:35;14.50;99.90
9662;DHT22;24982;52.344;12.990;2023-05-31T02:28:40;14.50;99.90
9662;DHT22;24982;52.344;12.990;2023-05-31T02:31:44;14.50;99.90
9662;DHT22;24982;52.344;12.990;2023-05-31T02:34:47;14.50;99.90
9662;DHT22;24982;52.344;12.990;2023-05-31T02:37:49;14.50;99.90
9662;DHT22;24982;52.344;12.990;2023-05-31T02:40:51;14.50;99.90
9662;DHT22;24982;52.344;12.990;2023-05-31T02:43:55;14.50;99.90
9662;DHT22;24982;52.344;12.990;2023-05-31T02:46:57;14.40;99.90
9662;DHT22;24982;52.344;12.990;2023-05-31T02:49:59;14.40;99.90
9662;DHT22;24982;52.344;12.990;2023-05-31T02:53:02;14.40;99.90
9662;DHT22;24982;52.344;12.990;2023-05-31T02:56:10;14.40;99.90
9662;DHT22;24982;52.344;12.990;2023-05-31T02:59:26;14.40;99.90
9662;DHT22;24982;52.344;12.990;2023-05-31T03:02:37;14.40;99.90
9662;DHT22;24982;52.344;12.990;2023-05-31T03:05:49;14.30;99.90
9662;DHT22;24982;52.344;12.990;2023-05-31T03:08:51;14.30;99.90
9662;DHT22;24982;52.344;12.990;2023-05-31T03:11:55;14.30;99.90
9662;DHT22;24982;52.344;12.990;2023-05-31T03:18:03;14.20;99.90
9662;DHT22;24982;52.344;12.990;2023-05-31T03:24:08;14.20;99.90
9662;DHT22;24982;52.344;12.990;2023-05-31T03:27:11;14.20;99.90
9662;DHT22;24982;52.344;12.990;2023-05-31T03:30:16;14.20;99.90
9662;DHT22;24982;52.344;12.990;2023-05-31T03:33:25;14.20;99.90
9662;DHT22;24982;52.344;12.990;2023-05-31T03:36:28;14.10;99.90
9662;DHT22;24982;52.344;12.990;2023-05-31T03:39:34;14.20;99.90
9662;DHT22;24982;52.344;12.990;2023-05-31T03:42:38;14.20;99.90
9662;DHT22;24982;52.344;12.990;2023-05-31T03:45:43;14.20;99.90
9662;DHT22;24982;52.344;12.990;2023-05-31T03:54:49;14.20;99.90
9662;DHT22;24982;52.344;12.990;2023-05-31T03:57:51;14.10;99.90
9662;DHT22;24982;52.344;12.990;2023-05-31T04:00:59;14.00;99.90
9662;DHT22;24982;52.344;12.990;2023-05-31T04:04:02;14.00;99.90
9662;DHT22;24982;52.344;12.990;2023-05-31T04:07:06;14.00;99.90
9662;DHT22;24982;52.344;12.990;2023-05-31T04:10:09;14.00;99.90
9662;DHT22;24982;52.344;12.990;2023-05-31T04:13:11;14.10;99.90
9662;DHT22;24982;52.344;12.990;2023-05-31T04:16:15;14.10;99.90
9662;DHT22;24982;52.344;12.990;2023-05-31T04:19:17;14.10;99.90
9662;DHT22;24982;52.344;12.990;2023-05-31T04:22:19;14.00;99.90
9662;DHT22;24982;52.344;12.990;2023-05-31T04:25:23;14.00;99.90
9662;DHT22;24982;52.344;12.990;2023-05-31T04:28:25;14.00;99.90
9662;DHT22;24982;52.344;12.990;2023-05-31T04:31:31;14.00;99.90
9662;DHT22;24982;52.344;12.990;2023-05-31T04:34:36;14.00;99.90
9662;DHT22;24982;52.344;12.990;2023-05-31T04:37:39;14.00;99.90
9662;DHT22;24982;52.344;12.990;2023-05-31T04:40:42;14.10;99.90
9662;DHT22;24982;52.344;12.990;2023-05-31T04:43:44;14.20;99.90
9662;DHT22;24982;52.344;12.990;2023-05-31T04:46:49;14.20;99.90
9662;DHT22;24982;52.344;12.990;2023-05-31T04:49:51;14.20;99.90
9662;DHT22;24982;52.344;12.990;2023-05-31T04:52:55;14.20;99.90
9662;DHT22;24982;52.344;12.990;2023-05-31T04:55:58;14.20;99.90
9662;DHT22;24982;52.344;12.990;2023-05-31T04:59:05;14.20;99.90
9662;DHT22;24982;52.344;12.990;2023-05-31T05:02:09;14.20;99.90
9662;DHT22;24982;52.344;12.990;2023-05-31T05:05:12;14.20;99.90
9662;DHT22;24982;52.344;12.990;2023-05-31T05:08:16;14.20;99.90
9662;DHT22;24982;52.344;12.990;2023-05-31T05:11:18;14.30;99.90
9662;DHT22;24982;52.344;12.990;2023-05-31T05:14:21;14.40;99.90
9662;DHT22;24982;52.344;12.990;2023-05-31T05:17:24;14.40;99.90
9662;DHT22;24982;52.344;12.990;2023-05-31T05:20:26;14.40;99.90
9662;DHT22;24982;52.344;12.990;2023-05-31T05:23:28;14.50;99.90
9662;DHT22;24982;52.344;12.990;2023-05-31T05:26:32;14.60;99.90
9662;DHT22;24982;52.344;12.990;2023-05-31T05:29:35;14.60;99.90
9662;DHT22;24982;52.344;12.990;2023-05-31T05:32:38;14.70;99.90
9662;DHT22;24982;52.344;12.990;2023-05-31T05:35:41;14.80;99.90
9662;DHT22;24982;52.344;12.990;2023-05-31T05:38:43;14.80;99.90
9662;DHT22;24982;52.344;12.990;2023-05-31T05:41:45;14.60;99.90
9662;DHT22;24982;52.344;12.990;2023-05-31T05:44:47;14.90;99.90
9662;DHT22;24982;52.344;12.990;2023-05-31T05:47:51;15.00;99.90
9662;DHT22;24982;52.344;12.990;2023-05-31T05:50:56;15.20;99.90
9662;DHT22;24982;52.344;12.990;2023-05-31T05:53:58;15.20;99.90
9662;DHT22;24982;52.344;12.990;2023-05-31T05:57:02;15.30;99.90
9662;DHT22;24982;52.344;12.990;2023-05-31T06:00:08;15.30;99.90
9662;DHT22;24982;52.344;12.990;2023-05-31T06:03:15;15.30;99.90
9662;DHT22;24982;52.344;12.990;2023-05-31T06:06:17;15.40;99.90
9662;DHT22;24982;52.344;12.990;2023-05-31T06:09:19;15.40;99.90
9662;DHT22;24982;52.344;12.990;2023-05-31T06:12:22;15.40;99.90
9662;DHT22;24982;52.344;12.990;2023-05-31T06:15:24;15.60;99.90
9662;DHT22;24982;52.344;12.990;2023-05-31T06:18:27;15.50;99.90
9662;DHT22;24982;52.344;12.990;2023-05-31T06:21:29;15.50;99.90
9662;DHT22;24982;52.344;12.990;2023-05-31T06:24:32;15.60;99.90
9662;DHT22;24982;52.344;12.990;2023-05-31T06:27:35;15.60;99.90
9662;DHT22;24982;52.344;12.990;2023-05-31T06:30:38;15.60;99.90
9662;DHT22;24982;52.344;12.990;2023-05-31T06:33:41;15.70;99.90
9662;DHT22;24982;52.344;12.990;2023-05-31T06:36:43;15.70;99.90
9662;DHT22;24982;52.344;12.990;2023-05-31T06:39:45;15.80;99.90
9662;DHT22;24982;52.344;12.990;2023-05-31T06:42:47;15.80;99.90
9662;DHT22;24982;52.344;12.990;2023-05-31T06:46:23;15.90;99.90
9662;DHT22;24982;52.344;12.990;2023-05-31T06:49:55;16.40;99.90
9662;DHT22;24982;52.344;12.990;2023-05-31T06:53:29;15.90;99.90
9662;DHT22;24982;52.344;12.990;2023-05-31T06:56:50;15.90;99.90
9662;DHT22;24982;52.344;12.990;2023-05-31T06:59:52;16.00;99.90
9662;DHT22;24982;52.344;12.990;2023-05-31T07:02:55;16.00;99.90
9662;DHT22;24982;52.344;12.990;2023-05-31T07:05:59;16.10;99.90
9662;DHT22;24982;52.344;12.990;2023-05-31T07:09:01;16.20;99.90
9662;DHT22;24982;52.344;12.990;2023-05-31T07:12:15;16.00;99.90
9662;DHT22;24982;52.344;12.990;2023-05-31T07:15:17;15.90;99.90
9662;DHT22;24982;52.344;12.990;2023-05-31T07:18:19;15.90;99.90
9662;DHT22;24982;52.344;12.990;2023-05-31T07:21:27;15.90;99.90
9662;DHT22;24982;52.344;12.990;2023-05-31T07:24:29;16.00;99.90
9662;DHT22;24982;52.344;12.990;2023-05-31T07:27:31;16.00;99.90
9662;DHT22;24982;52.344;12.990;2023-05-31T07:30:33;16.10;99.90
9662;DHT22;24982;52.344;12.990;2023-05-31T07:33:35;16.20;99.90
9662;DHT22;24982;52.344;12.990;2023-05-31T07:36:39;16.30;99.90
9662;DHT22;24982;52.344;12.990;2023-05-31T07:39:43;16.40;99.90
9662;DHT22;24982;52.344;12.990;2023-05-31T07:42:45;16.40;99.90
9662;DHT22;24982;52.344;12.990;2023-05-31T07:45:47;16.40;99.90
9662;DHT22;24982;52.344;12.990;2023-05-31T07:48:49;16.50;99.90
9662;DHT22;24982;52.344;12.990;2023-05-31T07:51:53;16.70;99.90
9662;DHT22;24982;52.344;12.990;2023-05-31T07:54:55;16.80;99.90
9662;DHT22;24982;52.344;12.990;2023-05-31T07:57:57;17.00;99.90
9662;DHT22;24982;52.344;12.990;2023-05-31T08:00:59;17.10;99.90
9662;DHT22;24982;52.344;12.990;2023-05-31T08:04:08;17.20;99.90
9662;DHT22;24982;52.344;12.990;2023-05-31T08:07:11;17.20;99.90
9662;DHT22;24982;52.344;12.990;2023-05-31T08:10:14;17.30;99.90
9662;DHT22;24982;52.344;12.990;2023-05-31T08:13:16;17.50;99.90
9662;DHT22;24982;52.344;12.990;2023-05-31T08:16:18;17.70;99.90
9662;DHT22;24982;52.344;12.990;2023-05-31T08:19:20;17.80;99.90
9662;DHT22;24982;52.344;12.990;2023-05-31T08:22:23;17.50;99.90
9662;DHT22;24982;52.344;12.990;2023-05-31T08:25:25;17.90;99.90
9662;DHT22;24982;52.344;12.990;2023-05-31T08:28:27;18.00;99.90
9662;DHT22;24982;52.344;12.990;2023-05-31T08:31:30;18.10;99.90
9662;DHT22;24982;52.344;12.990;2023-05-31T08:34:32;18.20;99.90
9662;DHT22;24982;52.344;12.990;2023-05-31T08:37:37;18.30;99.90
9662;DHT22;24982;52.344;12.990;2023-05-31T08:40:39;18.50;99.90
9662;DHT22;24982;52.344;12.990;2023-05-31T08:43:41;18.60;99.90
9662;DHT22;24982;52.344;12.990;2023-05-31T08:46:45;18.70;99.90
9662;DHT22;24982;52.344;12.990;2023-05-31T08:49:48;18.80;99.90
9662;DHT22;24982;52.344;12.990;2023-05-31T08:52:52;19.00;99.90
9662;DHT22;24982;52.344;12.990;2023-05-31T08:55:55;19.30;99.90
9662;DHT22;24982;52.344;12.990;2023-05-31T08:58:57;19.50;99.90
9662;DHT22;24982;52.344;12.990;2023-05-31T09:02:00;19.60;99.90
9662;DHT22;24982;52.344;12.990;2023-05-31T09:05:03;19.70;99.90
9662;DHT22;24982;52.344;12.990;2023-05-31T09:08:07;19.80;99.90
9662;DHT22;24982;52.344;12.990;2023-05-31T09:11:09;20.00;99.90
9662;DHT22;24982;52.344;12.990;2023-05-31T09:14:12;20.10;99.70
9662;DHT22;24982;52.344;12.990;2023-05-31T09:17:14;20.50;99.20
9662;DHT22;24982;52.344;12.990;2023-05-31T09:20:18;20.60;98.80
9662;DHT22;24982;52.344;12.990;2023-05-31T09:23:22;20.90;97.60
9662;DHT22;24982;52.344;12.990;2023-05-31T09:26:24;21.20;97.30
9662;DHT22;24982;52.344;12.990;2023-05-31T09:29:27;21.20;98.90
9662;DHT22;24982;52.344;12.990;2023-05-31T09:32:30;21.20;98.40
9662;DHT22;24982;52.344;12.990;2023-05-31T09:35:32;20.90;98.60
9662;DHT22;24982;52.344;12.990;2023-05-31T09:38:36;20.80;97.40
9662;DHT22;24982;52.344;12.990;2023-05-31T09:41:38;21.00;99.30
9662;DHT22;24982;52.344;12.990;2023-05-31T09:44:47;21.40;99.30
9662;DHT22;24982;52.344;12.990;2023-05-31T09:47:49;21.80;98.60
9662;DHT22;24982;52.344;12.990;2023-05-31T09:50:52;22.10;97.80
9662;DHT22;24982;52.344;12.990;2023-05-31T09:53:56;22.10;97.20
9662;DHT22;24982;52.344;12.990;2023-05-31T09:56:59;22.20;95.40
9662;DHT22;24982;52.344;12.990;2023-05-31T10:00:02;22.30;96.20
9662;DHT22;24982;52.344;12.990;2023-05-31T10:03:13;22.60;97.00
9662;DHT22;24982;52.344;12.990;2023-05-31T10:06:16;22.70;95.40
9662;DHT22;24982;52.344;12.990;2023-05-31T10:09:20;22.80;94.60
9662;DHT22;24982;52.344;12.990;2023-05-31T10:12:25;23.10;95.30
9662;DHT22;24982;52.344;12.990;2023-05-31T10:15:31;23.10;94.80
9662;DHT22;24982;52.344;12.990;2023-05-31T10:18:35;23.00;93.70
9662;DHT22;24982;52.344;12.990;2023-05-31T10:21:42;23.30;93.00
9662;DHT22;24982;52.344;12.990;2023-05-31T10:24:51;23.50;94.30
9662;DHT22;24982;52.344;12.990;2023-05-31T10:27:54;23.60;94.00
9662;DHT22;24982;52.344;12.990;2023-05-31T10:30:57;23.30;92.90
9662;DHT22;24982;52.344;12.990;2023-05-31T10:34:07;23.50;93.30
9662;DHT22;24982;52.344;12.990;2023-05-31T10:37:11;23.70;92.90
9662;DHT22;24982;52.344;12.990;2023-05-31T10:40:17;23.90;93.10
9662;DHT22;24982;52.344;12.990;2023-05-31T10:43:24;24.00;92.70
9662;DHT22;24982;52.344;12.990;2023-05-31T10:46:31;23.80;92.90
9662;DHT22;24982;52.344;12.990;2023-05-31T10:49:34;23.90;93.00
9662;DHT22;24982;52.344;12.990;2023-05-31T10:52:37;24.20;93.20
9662;DHT22;24982;52.344;12.990;2023-05-31T10:55:46;24.30;93.50
9662;DHT22;24982;52.344;12.990;2023-05-31T10:58:50;24.30;92.70
9662;DHT22;24982;52.344;12.990;2023-05-31T11:01:52;24.30;93.40
9662;DHT22;24982;52.344;12.990;2023-05-31T11:04:54;23.90;94.50
9662;DHT22;24982;52.344;12.990;2023-05-31T11:07:57;23.90;93.20
9662;DHT22;24982;52.344;12.990;2023-05-31T11:11:29;24.00;93.20
9662;DHT22;24982;52.344;12.990;2023-05-31T11:14:59;24.30;93.40
9662;DHT22;24982;52.344;12.990;2023-05-31T11:18:01;23.70;93.50
9662;DHT22;24982;52.344;12.990;2023-05-31T11:21:04;23.50;93.20
9662;DHT22;24982;52.344;12.990;2023-05-31T11:24:06;23.00;93.70
9662;DHT22;24982;52.344;12.990;2023-05-31T11:27:12;23.20;92.90
9662;DHT22;24982;52.344;12.990;2023-05-31T11:30:15;23.20;93.10
9662;DHT22;24982;52.344;12.990;2023-05-31T11:33:17;22.90;93.30
9662;DHT22;24982;52.344;12.990;2023-05-31T11:36:20;22.50;93.70
9662;DHT22;24982;52.344;12.990;2023-05-31T11:39:24;22.30;93.80
9662;DHT22;24982;52.344;12.990;2023-05-31T11:42:30;22.30;94.50
9662;DHT22;24982;52.344;12.990;2023-05-31T11:45:33;23.00;94.20
9662;DHT22;24982;52.344;12.990;2023-05-31T11:48:38;23.50;95.60
9662;DHT22;24982;52.344;12.990;2023-05-31T11:51:42;23.90;94.10
9662;DHT22;24982;52.344;12.990;2023-05-31T11:54:46;24.40;93.00
9662;DHT22;24982;52.344;12.990;2023-05-31T11:57:50;24.90;93.10
9662;DHT22;24982;52.344;12.990;2023-05-31T12:00:58;24.70;92.80
9662;DHT22;24982;52.344;12.990;2023-05-31T12:04:00;24.20;93.60
9662;DHT22;24982;52.344;12.990;2023-05-31T12:07:03;23.70;94.40
9662;DHT22;24982;52.344;12.990;2023-05-31T12:10:06;23.70;94.40
9662;DHT22;24982;52.344;12.990;2023-05-31T12:13:10;23.50;93.80
9662;DHT22;24982;52.344;12.990;2023-05-31T12:16:12;23.90;94.70
9662;DHT22;24982;52.344;12.990;2023-05-31T12:19:14;24.10;94.90
9662;DHT22;24982;52.344;12.990;2023-05-31T12:22:16;23.90;94.50
9662;DHT22;24982;52.344;12.990;2023-05-31T12:25:18;23.40;94.50
9662;DHT22;24982;52.344;12.990;2023-05-31T12:28:21;23.30;93.10
9662;DHT22;24982;52.344;12.990;2023-05-31T12:31:24;23.40;95.20
9662;DHT22;24982;52.344;12.990;2023-05-31T12:34:29;23.60;95.00
9662;DHT22;24982;52.344;12.990;2023-05-31T12:37:34;23.50;94.90
9662;DHT22;24982;52.344;12.990;2023-05-31T12:40:37;23.30;94.70
9662;DHT22;24982;52.344;12.990;2023-05-31T12:43:41;23.20;95.00
9662;DHT22;24982;52.344;12.990;2023-05-31T12:46:44;23.20;94.70
9662;DHT22;24982;52.344;12.990;2023-05-31T12:49:46;23.40;94.60
9662;DHT22;24982;52.344;12.990;2023-05-31T12:52:55;23.50;93.50
9662;DHT22;24982;52.344;12.990;2023-05-31T12:55:57;23.70;94.30
9662;DHT22;24982;52.344;12.990;2023-05-31T12:59:00;23.50;92.40
9662;DHT22;24982;52.344;12.990;2023-05-31T13:02:04;23.00;94.00
9662;DHT22;24982;52.344;12.990;2023-05-31T13:05:07;23.00;94.60
9662;DHT22;24982;52.344;12.990;2023-05-31T13:08:09;22.80;95.10
9662;DHT22;24982;52.344;12.990;2023-05-31T13:11:12;22.90;95.30
9662;DHT22;24982;52.344;12.990;2023-05-31T13:14:16;22.90;93.70
9662;DHT22;24982;52.344;12.990;2023-05-31T13:17:19;23.20;92.20
9662;DHT22;24982;52.344;12.990;2023-05-31T13:20:21;23.50;93.10
9662;DHT22;24982;52.344;12.990;2023-05-31T13:23:24;23.60;94.70
9662;DHT22;24982;52.344;12.990;2023-05-31T13:26:26;23.60;94.60
9662;DHT22;24982;52.344;12.990;2023-05-31T13:29:30;23.00;93.70
9662;DHT22;24982;52.344;12.990;2023-05-31T13:32:32;23.10;94.70
9662;DHT22;24982;52.344;12.990;2023-05-31T13:35:34;23.00;94.60
9662;DHT22;24982;52.344;12.990;2023-05-31T13:38:36;23.00;94.50
9662;DHT22;24982;52.344;12.990;2023-05-31T13:41:39;22.90;94.60
9662;DHT22;24982;52.344;12.990;2023-05-31T13:44:42;22.80;94.40
9662;DHT22;24982;52.344;12.990;2023-05-31T13:47:44;22.70;94.40
9662;DHT22;24982;52.344;12.990;2023-05-31T13:50:46;22.70;94.50
9662;DHT22;24982;52.344;12.990;2023-05-31T13:53:49;22.70;94.20
9662;DHT22;24982;52.344;12.990;2023-05-31T13:56:51;22.80;94.20
9662;DHT22;24982;52.344;12.990;2023-05-31T13:59:54;22.70;95.10
9662;DHT22;24982;52.344;12.990;2023-05-31T14:02:57;23.10;94.20
9662;DHT22;24982;52.344;12.990;2023-05-31T14:06:00;23.30;93.80
9662;DHT22;24982;52.344;12.990;2023-05-31T14:09:02;23.40;93.90
9662;DHT22;24982;52.344;12.990;2023-05-31T14:12:04;23.40;93.80
9662;DHT22;24982;52.344;12.990;2023-05-31T14:15:10;23.40;94.20
9662;DHT22;24982;52.344;12.990;2023-05-31T15:13:03;25.40;93.50
9662;DHT22;24982;52.344;12.990;2023-05-31T15:16:06;26.10;93.70
9662;DHT22;24982;52.344;12.990;2023-05-31T15:19:11;25.40;93.60
9662;DHT22;24982;52.344;12.990;2023-05-31T15:22:13;25.50;95.00
9662;DHT22;24982;52.344;12.990;2023-05-31T15:25:15;25.40;93.70
9662;DHT22;24982;52.344;12.990;2023-05-31T15:28:20;25.20;92.10
9662;DHT22;24982;52.344;12.990;2023-05-31T15:31:24;25.10;93.90
9662;DHT22;24982;52.344;12.990;2023-05-31T15:34:26;25.10;93.10
9662;DHT22;24982;52.344;12.990;2023-05-31T15:37:28;25.00;92.40
9662;DHT22;24982;52.344;12.990;2023-05-31T15:40:30;24.90;93.10
9662;DHT22;24982;52.344;12.990;2023-05-31T15:43:32;24.70;93.60
9662;DHT22;24982;52.344;12.990;2023-05-31T15:46:36;24.70;91.30
9662;DHT22;24982;52.344;12.990;2023-05-31T15:49:42;24.40;93.10
9662;DHT22;24982;52.344;12.990;2023-05-31T15:52:44;24.20;94.30
9662;DHT22;24982;52.344;12.990;2023-05-31T15:55:46;24.20;91.10
9662;DHT22;24982;52.344;12.990;2023-05-31T15:58:49;24.00;92.40
9662;DHT22;24982;52.344;12.990;2023-05-31T16:01:52;23.90;92.90
9662;DHT22;24982;52.344;12.990;2023-05-31T16:04:54;23.70;93.90
9662;DHT22;24982;52.344;12.990;2023-05-31T16:07:59;23.60;93.50
9662;DHT22;24982;52.344;12.990;2023-05-31T16:11:01;23.50;94.40
9662;DHT22;24982;52.344;12.990;2023-05-31T16:14:03;23.40;94.70
9662;DHT22;24982;52.344;12.990;2023-05-31T16:17:06;23.30;95.10
9662;DHT22;24982;52.344;12.990;2023-05-31T16:20:09;23.20;93.90
9662;DHT22;24982;52.344;12.990;2023-05-31T16:23:11;23.20;95.50
9662;DHT22;24982;52.344;12.990;2023-05-31T16:26:13;23.10;96.00
9662;DHT22;24982;52.344;12.990;2023-05-31T16:29:16;23.10;91.80
9662;DHT22;24982;52.344;12.990;2023-05-31T16:32:19;23.10;93.70
9662;DHT22;24982;52.344;12.990;2023-05-31T16:35:21;23.00;94.70
9662;DHT22;24982;52.344;12.990;2023-05-31T16:38:23;23.00;95.00
9662;DHT22;24982;52.344;12.990;2023-05-31T16:41:25;23.00;95.90
9662;DHT22;24982;52.344;12.990;2023-05-31T16:44:27;22.90;93.90
9662;DHT22;24982;52.344;12.990;2023-05-31T16:47:31;22.90;95.10
9662;DHT22;24982;52.344;12.990;2023-05-31T16:50:33;22.80;96.00
9662;DHT22;24982;52.344;12.990;2023-05-31T16:53:35;22.70;95.50
9662;DHT22;24982;52.344;12.990;2023-05-31T16:56:37;22.70;95.80
9662;DHT22;24982;52.344;12.990;2023-05-31T16:59:41;22.60;95.80
9662;DHT22;24982;52.344;12.990;2023-05-31T17:02:44;22.60;96.20
9662;DHT22;24982;52.344;12.990;2023-05-31T17:05:46;22.50;96.10
9662;DHT22;24982;52.344;12.990;2023-05-31T17:08:48;22.50;96.00
9662;DHT22;24982;52.344;12.990;2023-05-31T17:11:50;22.50;94.70
9662;DHT22;24982;52.344;12.990;2023-05-31T17:14:52;22.50;95.80
9662;DHT22;24982;52.344;12.990;2023-05-31T17:17:56;22.50;96.60
9662;DHT22;24982;52.344;12.990;2023-05-31T17:20:58;22.50;95.50
9662;DHT22;24982;52.344;12.990;2023-05-31T17:24:00;22.40;96.30
9662;DHT22;24982;52.344;12.990;2023-05-31T17:27:02;22.30;97.00
9662;DHT22;24982;52.344;12.990;2023-05-31T17:30:05;22.10;96.60
9662;DHT22;24982;52.344;12.990;2023-05-31T17:33:09;22.30;97.90
9662;DHT22;24982;52.344;12.990;2023-05-31T17:36:11;22.20;96.50
9662;DHT22;24982;52.344;12.990;2023-05-31T17:39:14;22.10;96.40
9662;DHT22;24982;52.344;12.990;2023-05-31T17:42:16;22.00;96.60
9662;DHT22;24982;52.344;12.990;2023-05-31T17:45:18;21.80;96.50
9662;DHT22;24982;52.344;12.990;2023-05-31T17:48:21;21.80;96.90
9662;DHT22;24982;52.344;12.990;2023-05-31T17:51:23;21.70;97.60
9662;DHT22;24982;52.344;12.990;2023-05-31T17:54:25;21.40;98.50
9662;DHT22;24982;52.344;12.990;2023-05-31T17:57:27;21.30;98.50
9662;DHT22;24982;52.344;12.990;2023-05-31T18:00:29;21.00;99.20
9662;DHT22;24982;52.344;12.990;2023-05-31T18:03:33;20.60;99.30
9662;DHT22;24982;52.344;12.990;2023-05-31T18:06:35;20.30;99.90
9662;DHT22;24982;52.344;12.990;2023-05-31T18:09:38;20.20;99.90
9662;DHT22;24982;52.344;12.990;2023-05-31T18:12:40;20.40;99.90
9662;DHT22;24982;52.344;12.990;2023-05-31T18:15:42;20.50;99.60
9662;DHT22;24982;52.344;12.990;2023-05-31T18:18:45;20.50;99.90
9662;DHT22;24982;52.344;12.990;2023-05-31T18:21:47;20.50;99.90
9662;DHT22;24982;52.344;12.990;2023-05-31T18:24:49;20.60;99.90
9662;DHT22;24982;52.344;12.990;2023-05-31T18:27:51;20.50;99.90
9662;DHT22;24982;52.344;12.990;2023-05-31T18:30:53;20.50;99.90
9662;DHT22;24982;52.344;12.990;2023-05-31T18:33:57;20.50;99.90
9662;DHT22;24982;52.344;12.990;2023-05-31T18:36:59;20.40;99.90
9662;DHT22;24982;52.344;12.990;2023-05-31T18:40:01;20.40;99.90
9662;DHT22;24982;52.344;12.990;2023-05-31T18:43:03;20.30;99.90
9662;DHT22;24982;52.344;12.990;2023-05-31T18:46:06;20.20;99.90
9662;DHT22;24982;52.344;12.990;2023-05-31T18:49:10;20.20;99.90
9662;DHT22;24982;52.344;12.990;2023-05-31T18:52:12;20.10;99.90
9662;DHT22;24982;52.344;12.990;2023-05-31T18:55:15;20.10;99.90
9662;DHT22;24982;52.344;12.990;2023-05-31T18:58:17;20.00;99.90
9662;DHT22;24982;52.344;12.990;2023-05-31T19:01:19;20.00;99.90
9662;DHT22;24982;52.344;12.990;2023-05-31T19:04:24;20.00;99.90
9662;DHT22;24982;52.344;12.990;2023-05-31T19:07:27;19.90;99.90
9662;DHT22;24982;52.344;12.990;2023-05-31T19:10:29;19.80;99.90
9662;DHT22;24982;52.344;12.990;2023-05-31T19:13:31;19.80;99.90
9662;DHT22;24982;52.344;12.990;2023-05-31T19:16:33;19.70;99.90
9662;DHT22;24982;52.344;12.990;2023-05-31T19:19:36;19.60;99.90
9662;DHT22;24982;52.344;12.990;2023-05-31T19:22:45;19.50;99.90
9662;DHT22;24982;52.344;12.990;2023-05-31T19:25:49;19.40;99.90
9662;DHT22;24982;52.344;12.990;2023-05-31T19:28:51;19.40;99.90
9662;DHT22;24982;52.344;12.990;2023-05-31T19:31:53;19.30;99.90
9662;DHT22;24982;52.344;12.990;2023-05-31T19:34:56;19.20;99.90
9662;DHT22;24982;52.344;12.990;2023-05-31T19:37:58;19.10;99.90
9662;DHT22;24982;52.344;12.990;2023-05-31T19:41:00;19.00;99.90
9662;DHT22;24982;52.344;12.990;2023-05-31T19:44:03;18.90;99.90
9662;DHT22;24982;52.344;12.990;2023-05-31T19:47:05;18.80;99.90
9662;DHT22;24982;52.344;12.990;2023-05-31T19:50:09;18.70;99.90
9662;DHT22;24982;52.344;12.990;2023-05-31T19:53:11;18.60;99.90
9662;DHT22;24982;52.344;12.990;2023-05-31T19:56:13;18.50;99.90
9662;DHT22;24982;52.344;12.990;2023-05-31T19:59:15;18.50;99.90
9662;DHT22;24982;52.344;12.990;2023-05-31T20:02:17;18.40;99.90
9662;DHT22;24982;52.344;12.990;2023-05-31T20:05:21;18.30;99.90
9662;DHT22;24982;52.344;12.990;2023-05-31T20:08:26;18.20;99.90
9662;DHT22;24982;52.344;12.990;2023-05-31T20:11:28;18.10;99.90
9662;DHT22;24982;52.344;12.990;2023-05-31T20:14:30;18.10;99.90
9662;DHT22;24982;52.344;12.990;2023-05-31T20:17:32;18.10;99.90
9662;DHT22;24982;52.344;12.990;2023-05-31T20:20:36;18.10;99.90
9662;DHT22;24982;52.344;12.990;2023-05-31T20:23:38;18.10;99.90
9662;DHT22;24982;52.344;12.990;2023-05-31T20:26:40;18.00;99.90
9662;DHT22;24982;52.344;12.990;2023-05-31T20:29:42;18.00;99.90